sensor_id;sensor_type;location;lat;lon;timestamp;pressure;altitude;pressure_sealevel;temperature;humidity
21153;BME280;10734;44.792;20.482;2022-07-29T00:02:27;99839.59;;;23.27;79.56
21153;BME280;10734;44.792;20.482;2022-07-29T00:04:54;99834.59;;;23.24;79.81
21153;BME280;10734;44.792;20.482;2022-07-29T00:07:20;99834.59;;;23.24;79.31
21153;BME280;10734;44.792;20.482;2022-07-29T00:09:47;99836.25;;;23.25;78.89
21153;BME280;10734;44.792;20.482;2022-07-29T00:12:18;99836.47;;;23.23;78.98
21153;BME280;10734;44.792;20.482;2022-07-29T00:14:52;99831.69;;;23.19;79.05
21153;BME280;10734;44.792;20.482;2022-07-29T00:17:19;99832.78;;;23.18;79.60
21153;BME280;10734;44.792;20.482;2022-07-29T00:19:46;99841.16;;;23.11;80.06
21153;BME280;10734;44.792;20.482;2022-07-29T00:22:12;99842.91;;;23.05;80.21
21153;BME280;10734;44.792;20.482;2022-07-29T00:24:39;99839.56;;;23.03;80.83
21153;BME280;10734;44.792;20.482;2022-07-29T00:27:06;99834.56;;;23.00;81.02
21153;BME280;10734;44.792;20.482;2022-07-29T00:29:32;99830.84;;;22.94;81.37
21153;BME280;10734;44.792;20.482;2022-07-29T00:32:01;99823.09;;;22.91;81.86
21153;BME280;10734;44.792;20.482;2022-07-29T00:34:28;99832.03;;;22.87;82.30
21153;BME280;10734;44.792;20.482;2022-07-29T00:37:15;99820.94;;;22.82;83.01
21153;BME280;10734;44.792;20.482;2022-07-29T00:39:41;99820.94;;;22.82;82.84
21153;BME280;10734;44.792;20.482;2022-07-29T00:42:08;99823.06;;;22.79;83.11
21153;BME280;10734;44.792;20.482;2022-07-29T00:44:37;99821.25;;;22.73;84.62
21153;BME280;10734;44.792;20.482;2022-07-29T00:47:05;99817.81;;;22.66;85.50
21153;BME280;10734;44.792;20.482;2022-07-29T00:49:32;99818.75;;;22.60;86.66
21153;BME280;10734;44.792;20.482;2022-07-29T00:52:04;99817.53;;;22.56;86.63
21153;BME280;10734;44.792;20.482;2022-07-29T00:54:33;99813.00;;;22.50;86.84
21153;BME280;10734;44.792;20.482;2022-07-29T00:57:00;99813.47;;;22.47;89.34
21153;BME280;10734;44.792;20.482;2022-07-29T00:59:27;99808.22;;;22.45;88.16
21153;BME280;10734;44.792;20.482;2022-07-29T01:02:02;99805.59;;;22.38;90.06
21153;BME280;10734;44.792;20.482;2022-07-29T01:04:29;99814.28;;;22.35;91.30
21153;BME280;10734;44.792;20.482;2022-07-29T01:06:57;99807.78;;;22.30;92.35
21153;BME280;10734;44.792;20.482;2022-07-29T01:09:25;99810.16;;;22.26;92.34
21153;BME280;10734;44.792;20.482;2022-07-29T01:12:17;99812.63;;;22.16;94.53
21153;BME280;10734;44.792;20.482;2022-07-29T01:14:45;99803.22;;;22.12;95.78
21153;BME280;10734;44.792;20.482;2022-07-29T01:17:21;99800.94;;;22.08;96.09
21153;BME280;10734;44.792;20.482;2022-07-29T01:20:01;99795.91;;;22.05;97.05
21153;BME280;10734;44.792;20.482;2022-07-29T01:30:24;99781.81;;;21.90;100.00
21153;BME280;10734;44.792;20.482;2022-07-29T01:32:56;99779.06;;;21.90;100.00
21153;BME280;10734;44.792;20.482;2022-07-29T01:35:28;99780.50;;;21.93;98.87
21153;BME280;10734;44.792;20.482;2022-07-29T01:38:20;99775.03;;;21.93;99.88
21153;BME280;10734;44.792;20.482;2022-07-29T01:40:56;99781.81;;;21.90;99.42
21153;BME280;10734;44.792;20.482;2022-07-29T01:43:38;99779.66;;;21.92;100.00
21153;BME280;10734;44.792;20.482;2022-07-29T01:46:11;99777.16;;;21.90;100.00
21153;BME280;10734;44.792;20.482;2022-07-29T01:48:48;99781.81;;;21.90;100.00
21153;BME280;10734;44.792;20.482;2022-07-29T01:51:24;99787.28;;;21.90;100.00
21153;BME280;10734;44.792;20.482;2022-07-29T01:54:21;99780.56;;;21.86;100.00
21153;BME280;10734;44.792;20.482;2022-07-29T01:56:51;99782.13;;;21.82;100.00
21153;BME280;10734;44.792;20.482;2022-07-29T01:59:20;99783.66;;;21.78;100.00
21153;BME280;10734;44.792;20.482;2022-07-29T02:01:48;99785.78;;;21.76;100.00
21153;BME280;10734;44.792;20.482;2022-07-29T02:04:20;99795.53;;;21.71;100.00
21153;BME280;10734;44.792;20.482;2022-07-29T02:06:58;99790.50;;;21.68;100.00
21153;BME280;10734;44.792;20.482;2022-07-29T02:09:28;99787.16;;;21.66;100.00
21153;BME280;10734;44.792;20.482;2022-07-29T02:11:57;99787.63;;;21.63;100.00
21153;BME280;10734;44.792;20.482;2022-07-29T02:14:26;99791.44;;;21.62;100.00
21153;BME280;10734;44.792;20.482;2022-07-29T02:16:58;99785.94;;;21.62;100.00
21153;BME280;10734;44.792;20.482;2022-07-29T02:19:27;99785.34;;;21.60;100.00
21153;BME280;10734;44.792;20.482;2022-07-29T02:21:56;99782.63;;;21.60;100.00
21153;BME280;10734;44.792;20.482;2022-07-29T02:24:25;99781.75;;;21.60;100.00
21153;BME280;10734;44.792;20.482;2022-07-29T02:26:53;99777.97;;;21.61;100.00
21153;BME280;10734;44.792;20.482;2022-07-29T02:29:25;99777.97;;;21.61;100.00
21153;BME280;10734;44.792;20.482;2022-07-29T02:31:52;99787.63;;;21.63;100.00
21153;BME280;10734;44.792;20.482;2022-07-29T02:34:21;99781.69;;;21.66;100.00
21153;BME280;10734;44.792;20.482;2022-07-29T02:36:49;99787.16;;;21.66;99.95
21153;BME280;10734;44.792;20.482;2022-07-29T02:39:17;99776.00;;;21.68;99.78
21153;BME280;10734;44.792;20.482;2022-07-29T02:41:47;99789.22;;;21.71;98.92
21153;BME280;10734;44.792;20.482;2022-07-29T02:44:20;99784.56;;;21.71;98.78
21153;BME280;10734;44.792;20.482;2022-07-29T02:47:04;99779.09;;;21.71;98.82
21153;BME280;10734;44.792;20.482;2022-07-29T02:50:05;99789.59;;;21.75;98.66
21153;BME280;10734;44.792;20.482;2022-07-29T02:52:35;99778.63;;;21.75;98.53
21153;BME280;10734;44.792;20.482;2022-07-29T02:55:25;99774.84;;;21.76;98.38
21153;BME280;10734;44.792;20.482;2022-07-29T02:58:05;99780.31;;;21.76;98.17
21153;BME280;10734;44.792;20.482;2022-07-29T03:00:37;99774.84;;;21.76;98.43
21153;BME280;10734;44.792;20.482;2022-07-29T03:03:09;99776.47;;;21.77;98.14
21153;BME280;10734;44.792;20.482;2022-07-29T03:05:38;99780.31;;;21.76;97.77
21153;BME280;10734;44.792;20.482;2022-07-29T03:08:07;99781.38;;;21.75;98.47
21153;BME280;10734;44.792;20.482;2022-07-29T03:10:37;99775.28;;;21.72;98.33
21153;BME280;10734;44.792;20.482;2022-07-29T03:13:05;99776.94;;;21.73;98.26
21153;BME280;10734;44.792;20.482;2022-07-29T03:15:33;99786.25;;;21.72;98.34
21153;BME280;10734;44.792;20.482;2022-07-29T03:18:00;99784.56;;;21.71;98.48
21153;BME280;10734;44.792;20.482;2022-07-29T03:20:27;99785.41;;;21.72;98.09
21153;BME280;10734;44.792;20.482;2022-07-29T03:22:53;99790.66;;;21.73;98.17
21153;BME280;10734;44.792;20.482;2022-07-29T03:25:20;99795.06;;;21.75;98.09
21153;BME280;10734;44.792;20.482;2022-07-29T03:27:47;99784.94;;;21.75;97.73
21153;BME280;10734;44.792;20.482;2022-07-29T03:30:14;99798.41;;;21.77;97.77
21153;BME280;10734;44.792;20.482;2022-07-29T03:32:47;99791.28;;;21.76;97.77
21153;BME280;10734;44.792;20.482;2022-07-29T03:35:17;99802.69;;;21.72;98.17
21153;BME280;10734;44.792;20.482;2022-07-29T03:37:44;99799.31;;;21.70;98.24
21153;BME280;10734;44.792;20.482;2022-07-29T03:40:15;99795.53;;;21.71;98.23
21153;BME280;10734;44.792;20.482;2022-07-29T03:42:44;99802.69;;;21.72;98.10
21153;BME280;10734;44.792;20.482;2022-07-29T03:45:13;99798.84;;;21.73;97.71
21153;BME280;10734;44.792;20.482;2022-07-29T03:47:46;99809.81;;;21.73;97.79
21153;BME280;10734;44.792;20.482;2022-07-29T03:50:17;99810.22;;;21.77;97.87
21153;BME280;10734;44.792;20.482;2022-07-29T03:52:46;99811.63;;;21.80;97.87
21153;BME280;10734;44.792;20.482;2022-07-29T03:55:14;99818.56;;;21.82;97.82
21153;BME280;10734;44.792;20.482;2022-07-29T03:57:42;99807.97;;;21.86;97.32
21153;BME280;10734;44.792;20.482;2022-07-29T04:00:11;99803.72;;;21.90;96.95
21153;BME280;10734;44.792;20.482;2022-07-29T04:02:38;99811.47;;;21.93;96.68
21153;BME280;10734;44.792;20.482;2022-07-29T04:05:12;99817.56;;;21.95;96.75
21153;BME280;10734;44.792;20.482;2022-07-29T04:07:39;99801.56;;;21.92;96.82
21153;BME280;10734;44.792;20.482;2022-07-29T04:10:06;99815.91;;;21.94;96.60
21153;BME280;10734;44.792;20.482;2022-07-29T04:12:34;99813.75;;;21.96;96.70
21153;BME280;10734;44.792;20.482;2022-07-29T04:15:03;99810.41;;;21.94;96.85
21153;BME280;10734;44.792;20.482;2022-07-29T04:17:30;99818.88;;;21.93;96.76
21153;BME280;10734;44.792;20.482;2022-07-29T04:19:56;99828.91;;;21.99;96.64
21153;BME280;10734;44.792;20.482;2022-07-29T04:22:23;99825.00;;;22.06;95.80
21153;BME280;10734;44.792;20.482;2022-07-29T04:24:50;99827.88;;;22.12;95.40
21153;BME280;10734;44.792;20.482;2022-07-29T04:27:17;99829.53;;;22.13;95.62
21153;BME280;10734;44.792;20.482;2022-07-29T04:29:44;99837.00;;;22.24;94.73
21153;BME280;10734;44.792;20.482;2022-07-29T04:32:23;99833.56;;;22.29;94.29
21153;BME280;10734;44.792;20.482;2022-07-29T04:34:50;99841.56;;;22.30;94.06
21153;BME280;10734;44.792;20.482;2022-07-29T04:37:23;99832.03;;;22.33;94.12
21153;BME280;10734;44.792;20.482;2022-07-29T04:39:49;99840.19;;;22.39;93.84
21153;BME280;10734;44.792;20.482;2022-07-29T04:42:16;99838.84;;;22.42;93.46
21153;BME280;10734;44.792;20.482;2022-07-29T04:44:51;99847.59;;;22.51;93.15
21153;BME280;10734;44.792;20.482;2022-07-29T04:47:18;99845.25;;;22.66;92.46
21153;BME280;10734;44.792;20.482;2022-07-29T04:49:45;99843.09;;;22.68;92.32
21153;BME280;10734;44.792;20.482;2022-07-29T04:52:11;99835.38;;;22.77;92.11
21153;BME280;10734;44.792;20.482;2022-07-29T04:54:38;99840.00;;;22.76;92.00
21153;BME280;10734;44.792;20.482;2022-07-29T04:57:05;99835.84;;;22.74;91.93
21153;BME280;10734;44.792;20.482;2022-07-29T04:59:31;99833.09;;;22.86;91.31
21153;BME280;10734;44.792;20.482;2022-07-29T05:01:58;99840.06;;;23.00;90.84
21153;BME280;10734;44.792;20.482;2022-07-29T05:04:25;99832.22;;;23.15;90.04
21153;BME280;10734;44.792;20.482;2022-07-29T05:06:51;99829.09;;;23.24;89.63
21153;BME280;10734;44.792;20.482;2022-07-29T05:09:18;99828.13;;;23.30;88.99
21153;BME280;10734;44.792;20.482;2022-07-29T05:11:44;99838.84;;;23.43;88.19
21153;BME280;10734;44.792;20.482;2022-07-29T05:14:11;99842.41;;;23.56;87.55
21153;BME280;10734;44.792;20.482;2022-07-29T05:16:39;99834.66;;;23.64;87.16
21153;BME280;10734;44.792;20.482;2022-07-29T05:19:06;99836.88;;;23.79;86.29
21153;BME280;10734;44.792;20.482;2022-07-29T05:21:39;99841.06;;;23.94;85.34
21153;BME280;10734;44.792;20.482;2022-07-29T05:24:06;99840.66;;;24.02;84.75
21153;BME280;10734;44.792;20.482;2022-07-29T05:26:32;99839.66;;;24.20;83.41
21153;BME280;10734;44.792;20.482;2022-07-29T05:28:59;99842.81;;;24.29;82.25
21153;BME280;10734;44.792;20.482;2022-07-29T05:31:26;99847.25;;;24.30;82.13
21153;BME280;10734;44.792;20.482;2022-07-29T05:33:52;99847.41;;;24.40;81.86
21153;BME280;10734;44.792;20.482;2022-07-29T05:36:19;99855.63;;;24.52;81.22
21153;BME280;10734;44.792;20.482;2022-07-29T05:38:46;99850.44;;;24.55;80.82
21153;BME280;10734;44.792;20.482;2022-07-29T05:41:12;99855.69;;;24.69;80.50
21153;BME280;10734;44.792;20.482;2022-07-29T05:43:39;99855.34;;;24.82;79.83
21153;BME280;10734;44.792;20.482;2022-07-29T05:46:06;99854.19;;;24.78;79.77
21153;BME280;10734;44.792;20.482;2022-07-29T05:48:33;99853.84;;;24.91;78.91
21153;BME280;10734;44.792;20.482;2022-07-29T05:50:59;99862.03;;;24.86;78.84
21153;BME280;10734;44.792;20.482;2022-07-29T05:53:26;99850.19;;;25.03;78.42
21153;BME280;10734;44.792;20.482;2022-07-29T05:55:53;99852.34;;;25.35;77.35
21153;BME280;10734;44.792;20.482;2022-07-29T05:58:20;99856.97;;;25.51;76.98
21153;BME280;10734;44.792;20.482;2022-07-29T06:00:46;99855.50;;;25.43;76.33
21153;BME280;10734;44.792;20.482;2022-07-29T06:03:13;99850.50;;;25.62;76.18
21153;BME280;10734;44.792;20.482;2022-07-29T06:05:40;99846.22;;;25.72;75.26
21153;BME280;10734;44.792;20.482;2022-07-29T06:08:07;99851.44;;;25.68;75.65
21153;BME280;10734;44.792;20.482;2022-07-29T06:10:37;99856.31;;;25.44;76.17
21153;BME280;10734;44.792;20.482;2022-07-29T06:13:03;99853.22;;;25.79;74.54
21153;BME280;10734;44.792;20.482;2022-07-29T06:15:30;99858.78;;;26.07;73.78
21153;BME280;10734;44.792;20.482;2022-07-29T06:17:57;99853.28;;;26.07;72.77
21153;BME280;10734;44.792;20.482;2022-07-29T06:20:27;99851.13;;;26.09;72.54
21153;BME280;10734;44.792;20.482;2022-07-29T06:22:57;99863.19;;;26.03;72.97
21153;BME280;10734;44.792;20.482;2022-07-29T06:25:23;99853.41;;;25.95;72.86
21153;BME280;10734;44.792;20.482;2022-07-29T06:27:50;99850.91;;;26.15;72.24
21153;BME280;10734;44.792;20.482;2022-07-29T06:30:17;99849.97;;;26.05;73.08
21153;BME280;10734;44.792;20.482;2022-07-29T06:32:43;99857.91;;;26.23;72.09
21153;BME280;10734;44.792;20.482;2022-07-29T06:35:10;99850.31;;;26.35;72.24
21153;BME280;10734;44.792;20.482;2022-07-29T06:37:57;99851.94;;;26.36;72.10
21153;BME280;10734;44.792;20.482;2022-07-29T06:40:25;99846.84;;;26.50;71.59
21153;BME280;10734;44.792;20.482;2022-07-29T06:46:00;99855.03;;;26.67;71.12
21153;BME280;10734;44.792;20.482;2022-07-29T06:48:28;99855.69;;;26.80;70.53
21153;BME280;10734;44.792;20.482;2022-07-29T06:50:55;99851.47;;;27.04;69.25
21153;BME280;10734;44.792;20.482;2022-07-29T06:53:22;99856.03;;;27.21;68.66
21153;BME280;10734;44.792;20.482;2022-07-29T06:55:49;99847.75;;;27.26;68.09
21153;BME280;10734;44.792;20.482;2022-07-29T06:58:15;99854.75;;;27.34;68.06
21153;BME280;10734;44.792;20.482;2022-07-29T07:00:44;99855.19;;;27.63;66.53
21153;BME280;10734;44.792;20.482;2022-07-29T07:03:11;99858.59;;;27.80;66.10
21153;BME280;10734;44.792;20.482;2022-07-29T07:05:38;99852.63;;;27.99;65.15
21153;BME280;10734;44.792;20.482;2022-07-29T07:08:05;99849.91;;;28.20;64.32
21153;BME280;10734;44.792;20.482;2022-07-29T07:10:32;99849.41;;;28.54;63.67
21153;BME280;10734;44.792;20.482;2022-07-29T07:13:00;99844.44;;;28.61;63.18
21153;BME280;10734;44.792;20.482;2022-07-29T07:15:27;99855.00;;;28.84;62.70
21153;BME280;10734;44.792;20.482;2022-07-29T07:18:05;99848.63;;;28.94;61.77
21153;BME280;10734;44.792;20.482;2022-07-29T07:20:33;99852.78;;;28.92;62.08
21153;BME280;10734;44.792;20.482;2022-07-29T07:23:00;99851.69;;;29.24;60.84
21153;BME280;10734;44.792;20.482;2022-07-29T07:25:27;99851.41;;;29.25;60.44
21153;BME280;10734;44.792;20.482;2022-07-29T07:27:54;99857.50;;;29.27;61.36
21153;BME280;10734;44.792;20.482;2022-07-29T07:30:21;99852.66;;;29.69;60.25
21153;BME280;10734;44.792;20.482;2022-07-29T07:32:47;99857.66;;;29.62;58.46
21153;BME280;10734;44.792;20.482;2022-07-29T07:35:14;99853.16;;;29.91;59.09
21153;BME280;10734;44.792;20.482;2022-07-29T07:37:41;99858.16;;;29.89;58.41
21153;BME280;10734;44.792;20.482;2022-07-29T07:40:09;99852.75;;;29.48;58.95
21153;BME280;10734;44.792;20.482;2022-07-29T07:42:44;99852.56;;;29.94;58.51
21153;BME280;10734;44.792;20.482;2022-07-29T07:45:11;99854.22;;;30.01;57.47
21153;BME280;10734;44.792;20.482;2022-07-29T07:47:42;99852.66;;;29.64;58.85
21153;BME280;10734;44.792;20.482;2022-07-29T07:50:10;99853.81;;;29.63;59.10
21153;BME280;10734;44.792;20.482;2022-07-29T07:52:54;99857.09;;;29.65;58.57
21153;BME280;10734;44.792;20.482;2022-07-29T07:55:24;99847.03;;;29.94;57.90
21153;BME280;10734;44.792;20.482;2022-07-29T07:57:52;99856.38;;;30.09;57.15
21153;BME280;10734;44.792;20.482;2022-07-29T08:00:20;99855.13;;;30.41;56.43
21153;BME280;10734;44.792;20.482;2022-07-29T08:02:49;99865.47;;;30.70;55.84
21153;BME280;10734;44.792;20.482;2022-07-29T08:05:17;99854.50;;;30.49;56.08
21153;BME280;10734;44.792;20.482;2022-07-29T08:07:45;99855.69;;;30.77;54.88
21153;BME280;10734;44.792;20.482;2022-07-29T08:10:15;99859.59;;;30.32;55.49
21153;BME280;10734;44.792;20.482;2022-07-29T08:13:06;99856.53;;;30.43;55.67
21153;BME280;10734;44.792;20.482;2022-07-29T08:15:33;99850.97;;;30.78;54.70
21153;BME280;10734;44.792;20.482;2022-07-29T08:18:00;99862.25;;;31.26;53.22
21153;BME280;10734;44.792;20.482;2022-07-29T08:20:34;99860.75;;;30.25;54.79
21153;BME280;10734;44.792;20.482;2022-07-29T08:23:02;99859.00;;;30.45;54.64
21153;BME280;10734;44.792;20.482;2022-07-29T08:25:30;99865.63;;;30.49;53.99
21153;BME280;10734;44.792;20.482;2022-07-29T08:27:59;99857.84;;;30.51;54.70
21153;BME280;10734;44.792;20.482;2022-07-29T08:30:26;99865.91;;;30.87;53.25
21153;BME280;10734;44.792;20.482;2022-07-29T08:32:53;99859.13;;;31.04;52.82
21153;BME280;10734;44.792;20.482;2022-07-29T08:35:22;99859.78;;;30.51;54.52
21153;BME280;10734;44.792;20.482;2022-07-29T08:37:49;99855.50;;;30.63;54.34
21153;BME280;10734;44.792;20.482;2022-07-29T08:40:17;99853.88;;;30.57;54.97
21153;BME280;10734;44.792;20.482;2022-07-29T08:42:44;99850.13;;;31.12;53.36
21153;BME280;10734;44.792;20.482;2022-07-29T08:45:11;99849.47;;;31.25;52.98
21153;BME280;10734;44.792;20.482;2022-07-29T08:47:39;99858.50;;;31.65;51.81
21153;BME280;10734;44.792;20.482;2022-07-29T08:50:07;99868.31;;;31.82;50.97
21153;BME280;10734;44.792;20.482;2022-07-29T08:52:39;99857.56;;;31.46;51.94
21153;BME280;10734;44.792;20.482;2022-07-29T08:55:08;99850.28;;;31.55;51.38
21153;BME280;10734;44.792;20.482;2022-07-29T08:57:35;99857.81;;;32.22;50.83
21153;BME280;10734;44.792;20.482;2022-07-29T09:00:06;99848.94;;;32.91;48.39
21153;BME280;10734;44.792;20.482;2022-07-29T09:02:44;99853.00;;;32.28;49.45
21153;BME280;10734;44.792;20.482;2022-07-29T09:05:13;99847.00;;;31.96;50.42
21153;BME280;10734;44.792;20.482;2022-07-29T09:07:40;99854.81;;;31.94;50.58
21153;BME280;10734;44.792;20.482;2022-07-29T09:10:09;99853.13;;;32.17;50.34
21153;BME280;10734;44.792;20.482;2022-07-29T09:12:36;99848.50;;;32.07;50.23
21153;BME280;10734;44.792;20.482;2022-07-29T09:15:04;99845.09;;;32.16;51.07
21153;BME280;10734;44.792;20.482;2022-07-29T09:17:49;99843.22;;;31.39;51.83
21153;BME280;10734;44.792;20.482;2022-07-29T09:20:18;99840.81;;;31.27;53.42
21153;BME280;10734;44.792;20.482;2022-07-29T09:22:46;99844.25;;;31.43;52.34
21153;BME280;10734;44.792;20.482;2022-07-29T09:25:32;99843.44;;;31.90;50.92
21153;BME280;10734;44.792;20.482;2022-07-29T09:28:10;99838.78;;;31.86;51.35
21153;BME280;10734;44.792;20.482;2022-07-29T09:31:04;99837.38;;;32.84;49.95
21153;BME280;10734;44.792;20.482;2022-07-29T09:33:33;99829.06;;;33.44;47.65
21153;BME280;10734;44.792;20.482;2022-07-29T09:36:06;99830.09;;;33.76;47.04
21153;BME280;10734;44.792;20.482;2022-07-29T09:38:36;99828.22;;;33.85;46.46
21153;BME280;10734;44.792;20.482;2022-07-29T09:41:04;99821.56;;;34.09;45.13
21153;BME280;10734;44.792;20.482;2022-07-29T09:43:33;99836.69;;;33.53;44.96
21153;BME280;10734;44.792;20.482;2022-07-29T09:46:12;99826.81;;;33.74;44.88
21153;BME280;10734;44.792;20.482;2022-07-29T09:48:39;99827.38;;;33.99;44.13
21153;BME280;10734;44.792;20.482;2022-07-29T09:51:19;99827.22;;;34.54;44.02
21153;BME280;10734;44.792;20.482;2022-07-29T09:53:55;99826.09;;;34.78;42.56
21153;BME280;10734;44.792;20.482;2022-07-29T09:56:41;99823.25;;;33.41;44.80
21153;BME280;10734;44.792;20.482;2022-07-29T09:59:09;99818.72;;;32.98;46.79
21153;BME280;10734;44.792;20.482;2022-07-29T10:01:38;99817.94;;;32.78;47.14
21153;BME280;10734;44.792;20.482;2022-07-29T10:04:05;99807.09;;;34.07;45.89
21153;BME280;10734;44.792;20.482;2022-07-29T10:06:31;99810.34;;;35.05;42.74
21153;BME280;10734;44.792;20.482;2022-07-29T10:09:11;99810.03;;;35.95;40.33
21153;BME280;10734;44.792;20.482;2022-07-29T10:11:37;99808.78;;;35.61;40.79
21153;BME280;10734;44.792;20.482;2022-07-29T10:14:15;99805.72;;;35.32;41.47
21153;BME280;10734;44.792;20.482;2022-07-29T10:16:42;99802.16;;;35.57;40.57
21153;BME280;10734;44.792;20.482;2022-07-29T10:19:09;99797.38;;;36.24;39.34
21153;BME280;10734;44.792;20.482;2022-07-29T10:21:36;99796.97;;;37.04;38.80
21153;BME280;10734;44.792;20.482;2022-07-29T10:24:06;99800.00;;;37.76;36.85
21153;BME280;10734;44.792;20.482;2022-07-29T10:26:40;99795.88;;;37.74;36.39
21153;BME280;10734;44.792;20.482;2022-07-29T10:29:07;99789.88;;;37.46;35.80
21153;BME280;10734;44.792;20.482;2022-07-29T10:31:47;99787.47;;;36.01;39.15
21153;BME280;10734;44.792;20.482;2022-07-29T10:34:50;99790.69;;;35.68;39.69
21153;BME280;10734;44.792;20.482;2022-07-29T10:43:29;99773.28;;;36.76;37.51
21153;BME280;10734;44.792;20.482;2022-07-29T10:46:00;99780.22;;;36.52;38.12
21153;BME280;10734;44.792;20.482;2022-07-29T10:48:26;99777.56;;;34.74;41.90
21153;BME280;10734;44.792;20.482;2022-07-29T10:51:03;99778.56;;;35.32;40.96
21153;BME280;10734;44.792;20.482;2022-07-29T10:53:51;99766.09;;;35.07;41.03
21153;BME280;10734;44.792;20.482;2022-07-29T10:56:30;99752.56;;;34.24;42.69
21153;BME280;10734;44.792;20.482;2022-07-29T11:01:49;99733.94;;;35.36;40.89
21153;BME280;10734;44.792;20.482;2022-07-29T11:07:10;99740.56;;;36.97;37.57
21153;BME280;10734;44.792;20.482;2022-07-29T11:09:40;99736.47;;;36.86;37.77
21153;BME280;10734;44.792;20.482;2022-07-29T11:15:06;99738.22;;;36.99;37.52
21153;BME280;10734;44.792;20.482;2022-07-29T11:23:30;99734.50;;;35.55;38.69
21153;BME280;10734;44.792;20.482;2022-07-29T11:28:54;99731.13;;;36.02;38.28
21153;BME280;10734;44.792;20.482;2022-07-29T11:34:24;99729.31;;;37.74;34.96
21153;BME280;10734;44.792;20.482;2022-07-29T11:45:07;99715.56;;;36.57;37.01
21153;BME280;10734;44.792;20.482;2022-07-29T11:47:56;99715.00;;;36.90;36.72
21153;BME280;10734;44.792;20.482;2022-07-29T11:50:44;99716.00;;;37.84;35.04
21153;BME280;10734;44.792;20.482;2022-07-29T11:53:13;99719.69;;;37.97;34.50
21153;BME280;10734;44.792;20.482;2022-07-29T11:55:41;99717.38;;;37.78;34.67
21153;BME280;10734;44.792;20.482;2022-07-29T11:58:21;99717.06;;;37.11;35.34
21153;BME280;10734;44.792;20.482;2022-07-29T12:00:51;99719.41;;;35.16;39.60
21153;BME280;10734;44.792;20.482;2022-07-29T12:03:25;99720.88;;;35.62;38.45
21153;BME280;10734;44.792;20.482;2022-07-29T12:06:04;99728.81;;;35.95;38.41
21153;BME280;10734;44.792;20.482;2022-07-29T12:08:42;99717.28;;;36.41;36.77
21153;BME280;10734;44.792;20.482;2022-07-29T12:11:18;99711.59;;;36.76;36.74
21153;BME280;10734;44.792;20.482;2022-07-29T12:13:46;99714.94;;;37.08;36.16
21153;BME280;10734;44.792;20.482;2022-07-29T12:16:15;99717.31;;;37.56;35.51
21153;BME280;10734;44.792;20.482;2022-07-29T12:19:04;99723.38;;;38.09;34.27
21153;BME280;10734;44.792;20.482;2022-07-29T12:21:52;99726.88;;;37.34;34.52
21153;BME280;10734;44.792;20.482;2022-07-29T12:24:24;99716.03;;;37.24;35.52
21153;BME280;10734;44.792;20.482;2022-07-29T12:26:57;99717.06;;;37.11;35.79
21153;BME280;10734;44.792;20.482;2022-07-29T12:29:24;99717.75;;;37.08;35.97
21153;BME280;10734;44.792;20.482;2022-07-29T12:32:00;99710.34;;;36.12;36.99
21153;BME280;10734;44.792;20.482;2022-07-29T12:34:28;99707.06;;;36.10;37.29
21153;BME280;10734;44.792;20.482;2022-07-29T12:36:56;99705.38;;;35.56;38.37
21153;BME280;10734;44.792;20.482;2022-07-29T12:39:23;99706.41;;;35.78;38.19
21153;BME280;10734;44.792;20.482;2022-07-29T12:41:53;99695.88;;;35.84;37.86
21153;BME280;10734;44.792;20.482;2022-07-29T12:44:47;99696.16;;;36.99;36.12
21153;BME280;10734;44.792;20.482;2022-07-29T12:47:15;99692.25;;;38.15;35.19
21153;BME280;10734;44.792;20.482;2022-07-29T12:49:42;99698.34;;;38.71;33.90
21153;BME280;10734;44.792;20.482;2022-07-29T12:52:32;99693.91;;;38.82;33.16
21153;BME280;10734;44.792;20.482;2022-07-29T12:54:59;99692.75;;;38.50;33.67
21153;BME280;10734;44.792;20.482;2022-07-29T12:57:27;99696.53;;;38.21;33.47
21153;BME280;10734;44.792;20.482;2022-07-29T13:02:30;99688.63;;;37.21;35.09
21153;BME280;10734;44.792;20.482;2022-07-29T13:05:00;99684.53;;;36.80;35.94
21153;BME280;10734;44.792;20.482;2022-07-29T13:07:31;99667.75;;;36.62;36.06
21153;BME280;10734;44.792;20.482;2022-07-29T13:10:20;99673.38;;;36.45;36.46
21153;BME280;10734;44.792;20.482;2022-07-29T13:15:30;99663.56;;;36.86;36.81
21153;BME280;10734;44.792;20.482;2022-07-29T13:17:56;99673.03;;;37.62;34.38
21153;BME280;10734;44.792;20.482;2022-07-29T13:20:26;99667.34;;;37.71;33.46
21153;BME280;10734;44.792;20.482;2022-07-29T13:22:59;99670.75;;;37.34;34.57
21153;BME280;10734;44.792;20.482;2022-07-29T13:25:30;99663.53;;;36.21;36.66
21153;BME280;10734;44.792;20.482;2022-07-29T13:27:58;99658.63;;;35.66;37.25
21153;BME280;10734;44.792;20.482;2022-07-29T13:30:26;99662.19;;;34.82;39.00
21153;BME280;10734;44.792;20.482;2022-07-29T13:32:53;99664.03;;;34.33;40.60
21153;BME280;10734;44.792;20.482;2022-07-29T13:35:21;99651.16;;;34.00;40.93
21153;BME280;10734;44.792;20.482;2022-07-29T13:37:47;99658.31;;;34.15;40.37
21153;BME280;10734;44.792;20.482;2022-07-29T13:40:17;99655.50;;;35.01;39.51
21153;BME280;10734;44.792;20.482;2022-07-29T13:42:44;99640.47;;;35.54;37.72
21153;BME280;10734;44.792;20.482;2022-07-29T13:45:12;99646.41;;;36.31;37.38
21153;BME280;10734;44.792;20.482;2022-07-29T13:47:39;99636.84;;;37.10;36.12
21153;BME280;10734;44.792;20.482;2022-07-29T13:50:12;99632.53;;;37.63;34.53
21153;BME280;10734;44.792;20.482;2022-07-29T13:52:39;99629.53;;;37.26;34.83
21153;BME280;10734;44.792;20.482;2022-07-29T13:55:07;99632.31;;;36.58;35.62
21153;BME280;10734;44.792;20.482;2022-07-29T13:57:34;99630.56;;;36.18;36.35
21153;BME280;10734;44.792;20.482;2022-07-29T14:00:01;99635.22;;;35.44;37.45